KROA/ROA METAR and TAF weather

Enter ICAO airport designator
Station Type Date Time Source
KROA METAR 2020/09/22 19:54 UTC NOAA

KROA 221954Z 00000KT 10SM FEW250 22/09 A3015 RMK AO2 SLP207 T02220094


Station Type Date Time Source
KROA Decoded METAR 2020/09/22 19:54 UTC NOAA

ROANOKE REGIONAL AIRPORT, VA, United States (KROA) 37-19N 079-58W 362M
Sep 22, 2020 - 03:54 PM EDT / 2020.09.22 1954 UTC
Wind: Calm:0
Visibility: 10 mile(s):0
Sky conditions: mostly clear
Temperature: 72.0 F (22.2 C)
Dew Point: 48.9 F (9.4 C)
Relative Humidity: 44%
Pressure (altimeter): 30.15 in. Hg (1020 hPa)
ob: KROA 221954Z 00000KT 10SM FEW250 22/09 A3015 RMK AO2 SLP207 T02220094
cycle: 20

Station Type Date Time Source
KROA TAF 2020/09/22 18:24 UTC NOAA

TAF KROA 221722Z 2218/2318 29005KT P6SM FEW250
FM230400 VRB03KT P6SM SCT250

Example: see airport list